sensor_id;sensor_type;location;lat;lon;timestamp;temperature;humidity
33673;DHT22;20011;51.510;9.942;2023-09-19T00:00:49;18.10;99.90
33673;DHT22;20011;51.510;9.942;2023-09-19T00:03:16;18.10;99.90
33673;DHT22;20011;51.510;9.942;2023-09-19T00:05:43;18.10;99.90
33673;DHT22;20011;51.510;9.942;2023-09-19T00:08:11;18.10;99.90
33673;DHT22;20011;51.510;9.942;2023-09-19T00:10:42;18.00;99.90
33673;DHT22;20011;51.510;9.942;2023-09-19T00:13:09;18.10;99.90
33673;DHT22;20011;51.510;9.942;2023-09-19T00:15:45;18.10;99.90
33673;DHT22;20011;51.510;9.942;2023-09-19T00:18:19;18.10;99.90
33673;DHT22;20011;51.510;9.942;2023-09-19T00:20:51;18.10;99.90
33673;DHT22;20011;51.510;9.942;2023-09-19T00:23:19;18.20;99.90
33673;DHT22;20011;51.510;9.942;2023-09-19T00:25:47;18.10;99.90
33673;DHT22;20011;51.510;9.942;2023-09-19T00:28:14;18.10;99.90
33673;DHT22;20011;51.510;9.942;2023-09-19T00:30:45;18.10;99.90
33673;DHT22;20011;51.510;9.942;2023-09-19T00:33:17;18.10;99.90
33673;DHT22;20011;51.510;9.942;2023-09-19T00:35:49;18.20;99.90
33673;DHT22;20011;51.510;9.942;2023-09-19T00:38:17;18.20;99.90
33673;DHT22;20011;51.510;9.942;2023-09-19T00:40:48;18.10;99.90
33673;DHT22;20011;51.510;9.942;2023-09-19T00:43:15;18.20;99.90
33673;DHT22;20011;51.510;9.942;2023-09-19T00:45:45;18.20;99.90
33673;DHT22;20011;51.510;9.942;2023-09-19T00:48:18;18.30;99.90
33673;DHT22;20011;51.510;9.942;2023-09-19T00:50:47;18.20;99.90
33673;DHT22;20011;51.510;9.942;2023-09-19T00:53:19;18.20;99.90
33673;DHT22;20011;51.510;9.942;2023-09-19T00:55:48;18.30;99.90
33673;DHT22;20011;51.510;9.942;2023-09-19T00:58:17;18.30;99.90
33673;DHT22;20011;51.510;9.942;2023-09-19T01:00:47;18.30;99.90
33673;DHT22;20011;51.510;9.942;2023-09-19T01:03:15;18.30;99.90
33673;DHT22;20011;51.510;9.942;2023-09-19T01:05:42;18.30;99.90
33673;DHT22;20011;51.510;9.942;2023-09-19T01:08:10;18.30;99.90
33673;DHT22;20011;51.510;9.942;2023-09-19T01:10:55;18.30;99.90
33673;DHT22;20011;51.510;9.942;2023-09-19T01:13:47;18.30;99.90
33673;DHT22;20011;51.510;9.942;2023-09-19T01:16:19;18.30;99.90
33673;DHT22;20011;51.510;9.942;2023-09-19T01:21:37;18.30;99.90
33673;DHT22;20011;51.510;9.942;2023-09-19T01:29:48;18.30;99.90
33673;DHT22;20011;51.510;9.942;2023-09-19T01:32:17;18.20;99.90
33673;DHT22;20011;51.510;9.942;2023-09-19T01:37:17;18.20;99.90
33673;DHT22;20011;51.510;9.942;2023-09-19T01:39:47;18.20;99.90
33673;DHT22;20011;51.510;9.942;2023-09-19T01:42:43;18.10;99.90
33673;DHT22;20011;51.510;9.942;2023-09-19T01:53:23;18.10;99.90
33673;DHT22;20011;51.510;9.942;2023-09-19T01:55:52;18.10;99.90
33673;DHT22;20011;51.510;9.942;2023-09-19T01:58:44;18.10;99.90
33673;DHT22;20011;51.510;9.942;2023-09-19T02:01:19;18.10;99.90
33673;DHT22;20011;51.510;9.942;2023-09-19T02:03:48;18.10;99.90
33673;DHT22;20011;51.510;9.942;2023-09-19T02:06:17;18.00;99.90
33673;DHT22;20011;51.510;9.942;2023-09-19T02:08:45;18.00;99.90
33673;DHT22;20011;51.510;9.942;2023-09-19T02:11:14;18.00;99.90
33673;DHT22;20011;51.510;9.942;2023-09-19T02:13:41;18.00;99.90
33673;DHT22;20011;51.510;9.942;2023-09-19T02:16:09;17.90;99.90
33673;DHT22;20011;51.510;9.942;2023-09-19T02:18:38;18.00;99.90
33673;DHT22;20011;51.510;9.942;2023-09-19T02:21:06;18.00;99.90
33673;DHT22;20011;51.510;9.942;2023-09-19T02:23:39;17.90;99.90
33673;DHT22;20011;51.510;9.942;2023-09-19T02:26:08;18.00;99.90
33673;DHT22;20011;51.510;9.942;2023-09-19T02:28:35;17.90;99.90
33673;DHT22;20011;51.510;9.942;2023-09-19T02:31:02;17.90;99.90
33673;DHT22;20011;51.510;9.942;2023-09-19T02:33:32;17.90;99.90
33673;DHT22;20011;51.510;9.942;2023-09-19T02:36:00;17.80;99.90
33673;DHT22;20011;51.510;9.942;2023-09-19T02:38:30;17.80;99.90
33673;DHT22;20011;51.510;9.942;2023-09-19T02:40:57;17.80;99.90
33673;DHT22;20011;51.510;9.942;2023-09-19T02:43:24;17.80;99.90
33673;DHT22;20011;51.510;9.942;2023-09-19T02:45:52;17.90;99.90
33673;DHT22;20011;51.510;9.942;2023-09-19T02:48:23;17.80;99.90
33673;DHT22;20011;51.510;9.942;2023-09-19T02:50:52;17.80;99.90
33673;DHT22;20011;51.510;9.942;2023-09-19T02:53:19;17.70;99.90
33673;DHT22;20011;51.510;9.942;2023-09-19T02:55:47;17.70;99.90
33673;DHT22;20011;51.510;9.942;2023-09-19T02:58:15;17.70;99.90
33673;DHT22;20011;51.510;9.942;2023-09-19T03:00:42;17.80;99.90
33673;DHT22;20011;51.510;9.942;2023-09-19T03:03:15;17.70;99.90
33673;DHT22;20011;51.510;9.942;2023-09-19T03:05:46;17.70;99.90
33673;DHT22;20011;51.510;9.942;2023-09-19T03:08:15;17.70;99.90
33673;DHT22;20011;51.510;9.942;2023-09-19T03:10:46;17.70;99.90
33673;DHT22;20011;51.510;9.942;2023-09-19T03:13:15;17.60;99.90
33673;DHT22;20011;51.510;9.942;2023-09-19T03:15:42;17.60;99.90
33673;DHT22;20011;51.510;9.942;2023-09-19T03:18:21;17.60;99.90
33673;DHT22;20011;51.510;9.942;2023-09-19T03:20:54;17.60;99.90
33673;DHT22;20011;51.510;9.942;2023-09-19T03:23:29;17.50;99.90
33673;DHT22;20011;51.510;9.942;2023-09-19T03:25:56;17.60;99.90
33673;DHT22;20011;51.510;9.942;2023-09-19T03:28:24;17.50;99.90
33673;DHT22;20011;51.510;9.942;2023-09-19T03:31:05;17.60;99.90
33673;DHT22;20011;51.510;9.942;2023-09-19T03:33:35;17.50;99.90
33673;DHT22;20011;51.510;9.942;2023-09-19T03:36:04;17.50;99.90
33673;DHT22;20011;51.510;9.942;2023-09-19T03:38:33;17.50;99.90
33673;DHT22;20011;51.510;9.942;2023-09-19T03:41:01;17.50;99.90
33673;DHT22;20011;51.510;9.942;2023-09-19T03:43:29;17.40;99.90
33673;DHT22;20011;51.510;9.942;2023-09-19T03:45:56;17.50;99.90
33673;DHT22;20011;51.510;9.942;2023-09-19T03:48:23;17.40;99.90
33673;DHT22;20011;51.510;9.942;2023-09-19T03:50:51;17.50;99.90
33673;DHT22;20011;51.510;9.942;2023-09-19T03:53:19;17.40;99.90
33673;DHT22;20011;51.510;9.942;2023-09-19T03:55:46;17.50;99.90
33673;DHT22;20011;51.510;9.942;2023-09-19T03:58:13;17.40;99.90
33673;DHT22;20011;51.510;9.942;2023-09-19T04:00:40;17.40;99.90
33673;DHT22;20011;51.510;9.942;2023-09-19T04:03:07;17.40;99.90
33673;DHT22;20011;51.510;9.942;2023-09-19T04:05:34;17.40;99.90
33673;DHT22;20011;51.510;9.942;2023-09-19T04:08:01;17.40;99.90
33673;DHT22;20011;51.510;9.942;2023-09-19T04:10:29;17.40;99.90
33673;DHT22;20011;51.510;9.942;2023-09-19T04:12:56;17.40;99.90
33673;DHT22;20011;51.510;9.942;2023-09-19T04:15:24;17.40;99.90
33673;DHT22;20011;51.510;9.942;2023-09-19T04:17:54;17.30;99.90
33673;DHT22;20011;51.510;9.942;2023-09-19T04:20:21;17.30;99.90
33673;DHT22;20011;51.510;9.942;2023-09-19T04:22:51;17.40;99.90
33673;DHT22;20011;51.510;9.942;2023-09-19T04:25:19;17.40;99.90
33673;DHT22;20011;51.510;9.942;2023-09-19T04:27:46;17.40;99.90
33673;DHT22;20011;51.510;9.942;2023-09-19T04:30:14;17.30;99.90
33673;DHT22;20011;51.510;9.942;2023-09-19T04:32:41;17.40;99.90
33673;DHT22;20011;51.510;9.942;2023-09-19T04:35:09;17.40;99.90
33673;DHT22;20011;51.510;9.942;2023-09-19T04:37:40;17.40;99.90
33673;DHT22;20011;51.510;9.942;2023-09-19T04:40:10;17.30;99.90
33673;DHT22;20011;51.510;9.942;2023-09-19T04:42:52;17.40;99.90
33673;DHT22;20011;51.510;9.942;2023-09-19T04:45:20;17.40;99.90
33673;DHT22;20011;51.510;9.942;2023-09-19T04:47:47;17.40;99.90
33673;DHT22;20011;51.510;9.942;2023-09-19T04:50:14;17.40;99.90
33673;DHT22;20011;51.510;9.942;2023-09-19T04:52:41;17.40;99.90
33673;DHT22;20011;51.510;9.942;2023-09-19T04:55:15;17.40;99.90
33673;DHT22;20011;51.510;9.942;2023-09-19T04:57:50;17.40;99.90
33673;DHT22;20011;51.510;9.942;2023-09-19T05:00:19;17.30;99.90
33673;DHT22;20011;51.510;9.942;2023-09-19T05:02:50;17.30;99.90
33673;DHT22;20011;51.510;9.942;2023-09-19T05:05:20;17.30;99.90
33673;DHT22;20011;51.510;9.942;2023-09-19T05:07:49;17.40;99.90
33673;DHT22;20011;51.510;9.942;2023-09-19T05:10:18;17.30;99.90
33673;DHT22;20011;51.510;9.942;2023-09-19T05:12:45;17.30;99.90
33673;DHT22;20011;51.510;9.942;2023-09-19T05:15:14;17.40;99.90
33673;DHT22;20011;51.510;9.942;2023-09-19T05:17:51;17.40;99.90
33673;DHT22;20011;51.510;9.942;2023-09-19T05:20:22;17.40;99.90
33673;DHT22;20011;51.510;9.942;2023-09-19T05:23:06;17.30;99.90
33673;DHT22;20011;51.510;9.942;2023-09-19T05:25:39;17.30;99.90
33673;DHT22;20011;51.510;9.942;2023-09-19T05:28:08;17.30;99.90
33673;DHT22;20011;51.510;9.942;2023-09-19T05:30:36;17.30;99.90
33673;DHT22;20011;51.510;9.942;2023-09-19T05:33:03;17.30;99.90
33673;DHT22;20011;51.510;9.942;2023-09-19T05:35:31;17.30;99.90
33673;DHT22;20011;51.510;9.942;2023-09-19T05:37:58;17.30;99.90
33673;DHT22;20011;51.510;9.942;2023-09-19T05:40:26;17.30;99.90
33673;DHT22;20011;51.510;9.942;2023-09-19T05:42:54;17.30;99.90
33673;DHT22;20011;51.510;9.942;2023-09-19T05:45:21;17.30;99.90
33673;DHT22;20011;51.510;9.942;2023-09-19T05:47:52;17.20;99.90
33673;DHT22;20011;51.510;9.942;2023-09-19T05:50:23;17.30;99.90
33673;DHT22;20011;51.510;9.942;2023-09-19T05:52:52;17.20;99.90
33673;DHT22;20011;51.510;9.942;2023-09-19T05:55:19;17.30;99.90
33673;DHT22;20011;51.510;9.942;2023-09-19T05:57:51;17.30;99.90
33673;DHT22;20011;51.510;9.942;2023-09-19T06:00:19;17.30;99.90
33673;DHT22;20011;51.510;9.942;2023-09-19T06:02:56;17.30;99.90
33673;DHT22;20011;51.510;9.942;2023-09-19T06:05:26;17.30;99.90
33673;DHT22;20011;51.510;9.942;2023-09-19T06:07:54;17.30;99.90
33673;DHT22;20011;51.510;9.942;2023-09-19T06:10:21;17.30;99.90
33673;DHT22;20011;51.510;9.942;2023-09-19T06:12:49;17.30;99.90
33673;DHT22;20011;51.510;9.942;2023-09-19T06:15:17;17.40;99.90
33673;DHT22;20011;51.510;9.942;2023-09-19T06:17:50;17.40;99.90
33673;DHT22;20011;51.510;9.942;2023-09-19T06:20:18;17.40;99.90
33673;DHT22;20011;51.510;9.942;2023-09-19T06:22:47;17.40;99.90
33673;DHT22;20011;51.510;9.942;2023-09-19T06:25:14;17.40;99.90
33673;DHT22;20011;51.510;9.942;2023-09-19T06:27:50;17.50;99.90
33673;DHT22;20011;51.510;9.942;2023-09-19T06:30:19;17.50;99.90
33673;DHT22;20011;51.510;9.942;2023-09-19T06:32:46;17.40;99.90
33673;DHT22;20011;51.510;9.942;2023-09-19T06:35:16;17.40;99.90
33673;DHT22;20011;51.510;9.942;2023-09-19T06:37:43;17.50;99.90
33673;DHT22;20011;51.510;9.942;2023-09-19T06:40:12;17.50;99.90
33673;DHT22;20011;51.510;9.942;2023-09-19T06:42:49;17.50;99.90
33673;DHT22;20011;51.510;9.942;2023-09-19T06:45:19;17.50;99.90
33673;DHT22;20011;51.510;9.942;2023-09-19T06:47:47;17.50;99.90
33673;DHT22;20011;51.510;9.942;2023-09-19T06:50:21;17.50;99.90
33673;DHT22;20011;51.510;9.942;2023-09-19T06:52:53;17.50;99.90
33673;DHT22;20011;51.510;9.942;2023-09-19T06:55:22;17.60;99.90
33673;DHT22;20011;51.510;9.942;2023-09-19T06:57:52;17.50;99.90
33673;DHT22;20011;51.510;9.942;2023-09-19T07:00:21;17.60;99.90
33673;DHT22;20011;51.510;9.942;2023-09-19T07:03:00;17.60;99.90
33673;DHT22;20011;51.510;9.942;2023-09-19T07:05:28;17.60;99.90
33673;DHT22;20011;51.510;9.942;2023-09-19T07:07:55;17.70;99.90
33673;DHT22;20011;51.510;9.942;2023-09-19T07:10:22;17.80;99.90
33673;DHT22;20011;51.510;9.942;2023-09-19T07:12:58;17.70;99.90
33673;DHT22;20011;51.510;9.942;2023-09-19T07:15:30;17.70;99.90
33673;DHT22;20011;51.510;9.942;2023-09-19T07:18:00;17.80;99.90
33673;DHT22;20011;51.510;9.942;2023-09-19T07:20:27;17.90;99.90
33673;DHT22;20011;51.510;9.942;2023-09-19T07:22:58;17.90;99.90
33673;DHT22;20011;51.510;9.942;2023-09-19T07:25:29;17.90;99.90
33673;DHT22;20011;51.510;9.942;2023-09-19T07:27:58;17.90;99.90
33673;DHT22;20011;51.510;9.942;2023-09-19T07:30:28;17.90;99.90
33673;DHT22;20011;51.510;9.942;2023-09-19T07:32:56;17.90;99.90
33673;DHT22;20011;51.510;9.942;2023-09-19T07:35:23;17.90;99.90
33673;DHT22;20011;51.510;9.942;2023-09-19T07:37:50;17.90;99.90
33673;DHT22;20011;51.510;9.942;2023-09-19T07:40:19;17.90;99.90
33673;DHT22;20011;51.510;9.942;2023-09-19T07:42:47;18.00;99.90
33673;DHT22;20011;51.510;9.942;2023-09-19T07:45:14;18.00;99.90
33673;DHT22;20011;51.510;9.942;2023-09-19T07:47:45;18.10;99.90
33673;DHT22;20011;51.510;9.942;2023-09-19T07:50:16;18.10;99.90
33673;DHT22;20011;51.510;9.942;2023-09-19T07:52:47;18.10;99.90
33673;DHT22;20011;51.510;9.942;2023-09-19T07:55:14;18.20;99.90
33673;DHT22;20011;51.510;9.942;2023-09-19T07:57:46;18.20;99.90
33673;DHT22;20011;51.510;9.942;2023-09-19T08:00:14;18.30;99.90
33673;DHT22;20011;51.510;9.942;2023-09-19T08:02:42;18.20;99.90
33673;DHT22;20011;51.510;9.942;2023-09-19T08:05:11;18.20;99.90
33673;DHT22;20011;51.510;9.942;2023-09-19T08:07:40;18.30;99.90
33673;DHT22;20011;51.510;9.942;2023-09-19T08:10:08;18.30;99.90
33673;DHT22;20011;51.510;9.942;2023-09-19T08:12:40;18.30;99.90
33673;DHT22;20011;51.510;9.942;2023-09-19T08:15:14;18.30;99.90
33673;DHT22;20011;51.510;9.942;2023-09-19T08:17:41;18.40;99.90
33673;DHT22;20011;51.510;9.942;2023-09-19T08:20:09;18.40;99.90
33673;DHT22;20011;51.510;9.942;2023-09-19T08:22:48;18.40;99.90
33673;DHT22;20011;51.510;9.942;2023-09-19T08:25:18;18.40;99.90
33673;DHT22;20011;51.510;9.942;2023-09-19T08:27:46;18.50;99.90
33673;DHT22;20011;51.510;9.942;2023-09-19T08:30:20;18.50;99.90
33673;DHT22;20011;51.510;9.942;2023-09-19T08:32:51;18.50;99.90
33673;DHT22;20011;51.510;9.942;2023-09-19T08:35:18;18.60;99.90
33673;DHT22;20011;51.510;9.942;2023-09-19T08:37:46;18.60;99.90
33673;DHT22;20011;51.510;9.942;2023-09-19T08:40:13;18.60;99.90
33673;DHT22;20011;51.510;9.942;2023-09-19T08:42:54;18.70;99.90
33673;DHT22;20011;51.510;9.942;2023-09-19T08:45:23;18.70;99.90
33673;DHT22;20011;51.510;9.942;2023-09-19T08:50:56;18.60;99.90
33673;DHT22;20011;51.510;9.942;2023-09-19T08:56:14;18.80;99.90
33673;DHT22;20011;51.510;9.942;2023-09-19T08:58:57;18.80;99.90
33673;DHT22;20011;51.510;9.942;2023-09-19T09:01:29;18.80;99.90
33673;DHT22;20011;51.510;9.942;2023-09-19T09:03:59;18.90;99.90
33673;DHT22;20011;51.510;9.942;2023-09-19T09:06:28;18.90;99.90
33673;DHT22;20011;51.510;9.942;2023-09-19T09:08:55;18.90;99.90
33673;DHT22;20011;51.510;9.942;2023-09-19T09:11:23;18.80;99.90
33673;DHT22;20011;51.510;9.942;2023-09-19T09:13:51;18.90;99.90
33673;DHT22;20011;51.510;9.942;2023-09-19T09:16:19;18.80;99.90
33673;DHT22;20011;51.510;9.942;2023-09-19T09:18:47;18.90;99.90
33673;DHT22;20011;51.510;9.942;2023-09-19T09:21:25;18.90;99.90
33673;DHT22;20011;51.510;9.942;2023-09-19T09:23:52;18.80;99.90
33673;DHT22;20011;51.510;9.942;2023-09-19T09:26:41;18.90;99.90
33673;DHT22;20011;51.510;9.942;2023-09-19T09:29:09;19.10;99.90
33673;DHT22;20011;51.510;9.942;2023-09-19T09:31:36;19.10;99.90
33673;DHT22;20011;51.510;9.942;2023-09-19T09:34:04;19.10;99.90
33673;DHT22;20011;51.510;9.942;2023-09-19T09:36:39;19.20;99.90
33673;DHT22;20011;51.510;9.942;2023-09-19T09:39:08;19.20;99.90
33673;DHT22;20011;51.510;9.942;2023-09-19T09:41:52;19.30;99.90
33673;DHT22;20011;51.510;9.942;2023-09-19T09:44:19;19.20;99.90
33673;DHT22;20011;51.510;9.942;2023-09-19T09:46:48;19.30;99.90
33673;DHT22;20011;51.510;9.942;2023-09-19T09:49:26;19.40;99.90
33673;DHT22;20011;51.510;9.942;2023-09-19T09:52:04;19.50;99.90
33673;DHT22;20011;51.510;9.942;2023-09-19T09:54:38;19.50;99.90
33673;DHT22;20011;51.510;9.942;2023-09-19T09:57:09;19.60;99.90
33673;DHT22;20011;51.510;9.942;2023-09-19T09:59:56;19.50;99.90
33673;DHT22;20011;51.510;9.942;2023-09-19T10:02:43;19.50;99.90
33673;DHT22;20011;51.510;9.942;2023-09-19T10:05:17;19.60;99.90
33673;DHT22;20011;51.510;9.942;2023-09-19T10:07:50;19.60;99.90
33673;DHT22;20011;51.510;9.942;2023-09-19T10:10:33;19.70;99.90
33673;DHT22;20011;51.510;9.942;2023-09-19T10:13:07;19.70;99.90
33673;DHT22;20011;51.510;9.942;2023-09-19T10:15:36;19.80;99.90
33673;DHT22;20011;51.510;9.942;2023-09-19T10:18:05;19.70;99.90
33673;DHT22;20011;51.510;9.942;2023-09-19T10:20:32;19.80;99.90
33673;DHT22;20011;51.510;9.942;2023-09-19T10:23:09;19.80;99.90
33673;DHT22;20011;51.510;9.942;2023-09-19T10:25:42;19.80;99.90
33673;DHT22;20011;51.510;9.942;2023-09-19T10:28:10;19.70;99.90
33673;DHT22;20011;51.510;9.942;2023-09-19T10:30:48;19.70;99.90
33673;DHT22;20011;51.510;9.942;2023-09-19T10:33:18;19.80;99.90
33673;DHT22;20011;51.510;9.942;2023-09-19T10:35:49;19.80;99.90
33673;DHT22;20011;51.510;9.942;2023-09-19T10:38:19;19.80;99.90
33673;DHT22;20011;51.510;9.942;2023-09-19T10:40:56;19.80;99.90
33673;DHT22;20011;51.510;9.942;2023-09-19T10:43:31;19.80;99.90
33673;DHT22;20011;51.510;9.942;2023-09-19T10:46:06;19.80;99.90
33673;DHT22;20011;51.510;9.942;2023-09-19T10:48:34;19.80;99.90
33673;DHT22;20011;51.510;9.942;2023-09-19T10:51:11;19.60;99.90
33673;DHT22;20011;51.510;9.942;2023-09-19T10:53:50;19.60;99.90
33673;DHT22;20011;51.510;9.942;2023-09-19T10:56:23;19.70;99.90
33673;DHT22;20011;51.510;9.942;2023-09-19T10:58:51;19.70;99.90
33673;DHT22;20011;51.510;9.942;2023-09-19T11:01:18;19.70;99.90
33673;DHT22;20011;51.510;9.942;2023-09-19T11:03:47;19.70;99.90
33673;DHT22;20011;51.510;9.942;2023-09-19T11:06:17;19.70;99.90
33673;DHT22;20011;51.510;9.942;2023-09-19T11:08:55;19.60;99.90
33673;DHT22;20011;51.510;9.942;2023-09-19T11:30:46;19.80;99.90
33673;DHT22;20011;51.510;9.942;2023-09-19T11:33:24;19.70;99.90
33673;DHT22;20011;51.510;9.942;2023-09-19T11:36:13;19.70;99.90
33673;DHT22;20011;51.510;9.942;2023-09-19T11:43:49;19.70;99.90
33673;DHT22;20011;51.510;9.942;2023-09-19T11:46:22;19.80;99.90
33673;DHT22;20011;51.510;9.942;2023-09-19T11:48:51;19.70;99.90
33673;DHT22;20011;51.510;9.942;2023-09-19T11:51:20;19.80;99.90
33673;DHT22;20011;51.510;9.942;2023-09-19T11:53:57;19.80;99.90
33673;DHT22;20011;51.510;9.942;2023-09-19T11:56:27;19.80;99.90
33673;DHT22;20011;51.510;9.942;2023-09-19T11:58:56;19.80;99.90
33673;DHT22;20011;51.510;9.942;2023-09-19T12:01:28;19.80;99.90
33673;DHT22;20011;51.510;9.942;2023-09-19T12:03:57;19.90;99.90
33673;DHT22;20011;51.510;9.942;2023-09-19T12:06:27;19.90;99.90
33673;DHT22;20011;51.510;9.942;2023-09-19T12:08:54;19.90;99.90
33673;DHT22;20011;51.510;9.942;2023-09-19T12:11:22;19.90;99.90
33673;DHT22;20011;51.510;9.942;2023-09-19T12:13:50;19.90;99.90
33673;DHT22;20011;51.510;9.942;2023-09-19T12:16:19;19.90;99.90
33673;DHT22;20011;51.510;9.942;2023-09-19T12:18:50;19.90;99.90
33673;DHT22;20011;51.510;9.942;2023-09-19T12:26:45;19.80;99.90
33673;DHT22;20011;51.510;9.942;2023-09-19T12:29:19;19.90;99.90
33673;DHT22;20011;51.510;9.942;2023-09-19T12:31:54;19.90;99.90
33673;DHT22;20011;51.510;9.942;2023-09-19T12:34:28;19.80;99.90
33673;DHT22;20011;51.510;9.942;2023-09-19T12:37:09;19.80;99.90
33673;DHT22;20011;51.510;9.942;2023-09-19T12:39:43;19.70;99.90
33673;DHT22;20011;51.510;9.942;2023-09-19T12:42:17;19.70;99.90
33673;DHT22;20011;51.510;9.942;2023-09-19T12:44:51;19.60;99.90
33673;DHT22;20011;51.510;9.942;2023-09-19T12:47:24;19.60;99.90
33673;DHT22;20011;51.510;9.942;2023-09-19T12:50:10;19.50;99.90
33673;DHT22;20011;51.510;9.942;2023-09-19T12:52:46;19.60;99.90
33673;DHT22;20011;51.510;9.942;2023-09-19T12:55:29;19.60;99.90
33673;DHT22;20011;51.510;9.942;2023-09-19T13:00:38;19.50;99.90
33673;DHT22;20011;51.510;9.942;2023-09-19T13:08:17;19.50;99.90
33673;DHT22;20011;51.510;9.942;2023-09-19T13:13:42;19.50;99.90
33673;DHT22;20011;51.510;9.942;2023-09-19T13:16:16;19.50;99.90
33673;DHT22;20011;51.510;9.942;2023-09-19T13:18:51;19.60;99.90
33673;DHT22;20011;51.510;9.942;2023-09-19T13:21:32;19.60;99.90
33673;DHT22;20011;51.510;9.942;2023-09-19T13:24:21;19.50;99.90
33673;DHT22;20011;51.510;9.942;2023-09-19T13:26:49;19.60;99.90
33673;DHT22;20011;51.510;9.942;2023-09-19T13:29:16;19.60;99.90
33673;DHT22;20011;51.510;9.942;2023-09-19T13:31:46;19.70;99.90
33673;DHT22;20011;51.510;9.942;2023-09-19T13:34:13;19.60;99.90
33673;DHT22;20011;51.510;9.942;2023-09-19T13:36:43;19.70;99.90
33673;DHT22;20011;51.510;9.942;2023-09-19T13:39:10;19.80;99.90
33673;DHT22;20011;51.510;9.942;2023-09-19T13:41:40;19.80;99.90
33673;DHT22;20011;51.510;9.942;2023-09-19T13:44:06;19.80;99.90
33673;DHT22;20011;51.510;9.942;2023-09-19T13:46:35;19.80;99.90
33673;DHT22;20011;51.510;9.942;2023-09-19T13:49:02;19.80;99.80
33673;DHT22;20011;51.510;9.942;2023-09-19T13:51:32;19.70;99.90
33673;DHT22;20011;51.510;9.942;2023-09-19T13:53:59;19.80;99.90
33673;DHT22;20011;51.510;9.942;2023-09-19T13:56:26;19.80;99.90
33673;DHT22;20011;51.510;9.942;2023-09-19T13:58:57;19.70;99.90
33673;DHT22;20011;51.510;9.942;2023-09-19T14:01:24;19.70;99.70
33673;DHT22;20011;51.510;9.942;2023-09-19T14:03:53;19.60;99.60
33673;DHT22;20011;51.510;9.942;2023-09-19T14:06:23;19.70;99.70
33673;DHT22;20011;51.510;9.942;2023-09-19T14:08:50;19.70;99.90
33673;DHT22;20011;51.510;9.942;2023-09-19T14:11:17;19.80;99.90
33673;DHT22;20011;51.510;9.942;2023-09-19T14:13:44;19.80;99.90
33673;DHT22;20011;51.510;9.942;2023-09-19T14:16:16;19.90;99.90
33673;DHT22;20011;51.510;9.942;2023-09-19T14:18:45;19.70;99.90
33673;DHT22;20011;51.510;9.942;2023-09-19T14:21:13;19.70;99.90
33673;DHT22;20011;51.510;9.942;2023-09-19T14:23:41;19.70;99.90
33673;DHT22;20011;51.510;9.942;2023-09-19T14:26:10;19.80;99.90
33673;DHT22;20011;51.510;9.942;2023-09-19T14:28:37;19.80;99.90
33673;DHT22;20011;51.510;9.942;2023-09-19T14:31:09;19.90;99.90
33673;DHT22;20011;51.510;9.942;2023-09-19T14:33:37;19.90;99.90
33673;DHT22;20011;51.510;9.942;2023-09-19T14:36:06;19.90;99.90
33673;DHT22;20011;51.510;9.942;2023-09-19T14:38:35;19.90;99.90
33673;DHT22;20011;51.510;9.942;2023-09-19T14:41:03;19.90;99.90
33673;DHT22;20011;51.510;9.942;2023-09-19T14:43:31;19.80;99.90
33673;DHT22;20011;51.510;9.942;2023-09-19T14:46:03;19.60;99.90
33673;DHT22;20011;51.510;9.942;2023-09-19T14:48:30;19.70;99.80
33673;DHT22;20011;51.510;9.942;2023-09-19T14:51:05;19.50;99.10
33673;DHT22;20011;51.510;9.942;2023-09-19T14:53:32;19.50;99.10
33673;DHT22;20011;51.510;9.942;2023-09-19T14:56:04;19.50;99.60
33673;DHT22;20011;51.510;9.942;2023-09-19T14:58:31;19.50;99.90
33673;DHT22;20011;51.510;9.942;2023-09-19T15:01:06;19.50;99.90
33673;DHT22;20011;51.510;9.942;2023-09-19T15:03:33;19.60;99.90
33673;DHT22;20011;51.510;9.942;2023-09-19T15:06:06;19.60;99.90
33673;DHT22;20011;51.510;9.942;2023-09-19T15:08:37;19.60;99.90
33673;DHT22;20011;51.510;9.942;2023-09-19T15:11:09;19.60;99.90
33673;DHT22;20011;51.510;9.942;2023-09-19T15:13:37;19.50;99.60
33673;DHT22;20011;51.510;9.942;2023-09-19T15:16:06;19.50;99.40
33673;DHT22;20011;51.510;9.942;2023-09-19T15:18:41;19.50;99.60
33673;DHT22;20011;51.510;9.942;2023-09-19T15:21:10;19.40;99.30
33673;DHT22;20011;51.510;9.942;2023-09-19T15:23:39;19.40;98.90
33673;DHT22;20011;51.510;9.942;2023-09-19T15:26:07;19.40;98.40
33673;DHT22;20011;51.510;9.942;2023-09-19T15:28:40;19.40;98.20
33673;DHT22;20011;51.510;9.942;2023-09-19T15:31:10;19.40;98.10
33673;DHT22;20011;51.510;9.942;2023-09-19T15:33:37;19.30;98.20
33673;DHT22;20011;51.510;9.942;2023-09-19T15:36:06;19.30;99.20
33673;DHT22;20011;51.510;9.942;2023-09-19T15:39:00;19.30;99.10
33673;DHT22;20011;51.510;9.942;2023-09-19T15:41:32;19.30;98.80
33673;DHT22;20011;51.510;9.942;2023-09-19T15:44:01;19.30;98.70
33673;DHT22;20011;51.510;9.942;2023-09-19T15:46:29;19.30;98.90
33673;DHT22;20011;51.510;9.942;2023-09-19T15:48:57;19.30;99.00
33673;DHT22;20011;51.510;9.942;2023-09-19T15:51:25;19.20;99.30
33673;DHT22;20011;51.510;9.942;2023-09-19T15:53:53;19.20;99.00
33673;DHT22;20011;51.510;9.942;2023-09-19T15:56:21;19.20;98.90
33673;DHT22;20011;51.510;9.942;2023-09-19T15:58:54;19.20;99.10
33673;DHT22;20011;51.510;9.942;2023-09-19T16:01:22;19.20;99.10
33673;DHT22;20011;51.510;9.942;2023-09-19T16:03:51;19.20;99.00
33673;DHT22;20011;51.510;9.942;2023-09-19T16:06:29;19.10;98.60
33673;DHT22;20011;51.510;9.942;2023-09-19T16:08:57;19.20;98.50
33673;DHT22;20011;51.510;9.942;2023-09-19T16:11:27;19.20;98.70
33673;DHT22;20011;51.510;9.942;2023-09-19T16:13:54;19.10;98.60
33673;DHT22;20011;51.510;9.942;2023-09-19T16:16:22;19.10;98.50
33673;DHT22;20011;51.510;9.942;2023-09-19T16:18:55;19.10;98.40
33673;DHT22;20011;51.510;9.942;2023-09-19T16:21:29;19.10;98.50
33673;DHT22;20011;51.510;9.942;2023-09-19T16:23:59;19.20;98.00
33673;DHT22;20011;51.510;9.942;2023-09-19T16:26:27;19.10;97.40
33673;DHT22;20011;51.510;9.942;2023-09-19T16:28:57;19.10;97.30
33673;DHT22;20011;51.510;9.942;2023-09-19T16:31:29;19.10;96.70
33673;DHT22;20011;51.510;9.942;2023-09-19T16:33:56;19.10;96.90
33673;DHT22;20011;51.510;9.942;2023-09-19T16:36:26;19.10;96.50
33673;DHT22;20011;51.510;9.942;2023-09-19T16:38:53;19.10;96.50
33673;DHT22;20011;51.510;9.942;2023-09-19T16:41:20;19.10;96.70
33673;DHT22;20011;51.510;9.942;2023-09-19T16:43:47;19.00;96.70
33673;DHT22;20011;51.510;9.942;2023-09-19T16:46:15;19.00;96.90
33673;DHT22;20011;51.510;9.942;2023-09-19T16:48:46;18.90;97.10
33673;DHT22;20011;51.510;9.942;2023-09-19T16:51:16;19.00;97.20
33673;DHT22;20011;51.510;9.942;2023-09-19T16:53:44;19.00;97.30
33673;DHT22;20011;51.510;9.942;2023-09-19T16:56:16;19.00;97.60